Time;durP1;ratioP1;P1;durP2;ratioP2;P2;SDS_P1;SDS_P2;PMS_P1;PMS_P2;Temp;Humidity;BMP_temperature;BMP_pressure;BME280_temperature;BME280_humidity;BME280_pressure;Samples;Min_cycle;Max_cycle;Signal;HPM_P1;HPM_P2
2021/11/28 00:01:51;;;;;;;12.48;5.20;;;2.70;99.90;;;3.07;97.72;98366.34;5038597;28;20396;-80
2021/11/28 00:04:22;;;;;;;13.23;5.57;;;2.70;99.90;;;3.06;97.52;98368.31;5036996;28;20029;-80
2021/11/28 00:07:26;;;;;;;13.88;5.63;;;2.70;99.90;;;3.02;98.26;98361.91;5037684;28;20493;-79
2021/11/28 00:12:37;;;;;;;12.30;5.03;;;2.70;99.90;;;3.04;98.11;98358.81;5038962;28;20040;-80
2021/11/28 00:15:13;;;;;;;11.25;5.03;;;2.80;99.90;;;3.06;98.08;98367.50;5038052;28;20397;-79
2021/11/28 00:17:40;;;;;;;8.05;5.55;;;2.80;99.90;;;3.03;98.34;98371.00;5035371;28;20067;-80
2021/11/28 00:20:16;;;;;;;13.88;4.75;;;2.80;99.90;;;3.05;98.38;98365.94;5037383;28;20040;-79
2021/11/28 00:22:44;;;;;;;13.48;5.53;;;2.80;99.90;;;3.04;98.48;98373.41;5015954;28;20022;-80
2021/11/28 00:25:17;;;;;;;18.35;6.53;;;2.70;99.90;;;2.98;98.51;98363.03;5017781;28;20033;-79
2021/11/28 00:27:50;;;;;;;11.15;5.95;;;2.70;99.90;;;2.97;98.34;98358.66;5016453;28;20045;-79
2021/11/28 00:30:25;;;;;;;11.73;5.28;;;2.70;99.90;;;2.89;98.98;98363.22;5016364;28;20045;-80
2021/11/28 00:32:52;;;;;;;13.20;5.13;;;2.60;99.90;;;2.83;99.03;98364.69;5015352;28;20030;-79
2021/11/28 00:35:20;;;;;;;16.83;5.03;;;2.60;99.90;;;2.77;99.35;98359.81;5014917;28;20043;-77
2021/11/28 00:37:46;;;;;;;12.45;5.20;;;2.50;99.90;;;2.71;99.97;98369.53;5016019;28;20025;-79
2021/11/28 00:40:13;;;;;;;14.45;5.85;;;2.40;99.90;;;2.62;100.00;98359.53;5016231;28;20017;-80
2021/11/28 00:42:39;;;;;;;12.07;5.63;;;2.40;99.90;;;2.55;100.00;98353.06;5016611;28;20036;-81
2021/11/28 00:45:07;;;;;;;16.25;5.35;;;2.30;99.90;;;2.50;100.00;98361.63;5016597;28;20026;-80
2021/11/28 00:47:35;;;;;;;13.50;5.35;;;2.30;99.90;;;2.51;100.00;98358.47;5016187;28;20026;-79
2021/11/28 00:52:43;;;;;;;14.10;5.32;;;2.30;99.90;;;2.61;100.00;98360.69;5016075;28;20034;-80
2021/11/28 00:55:12;;;;;;;11.85;5.47;;;2.30;99.90;;;2.64;100.00;98361.91;5016376;28;20034;-78
2021/11/28 00:57:39;;;;;;;11.73;5.07;;;2.30;99.90;;;2.64;100.00;98357.19;5015790;28;20037;-79
2021/11/28 01:00:11;;;;;;;14.73;5.95;;;2.30;99.90;;;2.67;100.00;98358.44;5017453;28;20040;-79
2021/11/28 01:02:38;;;;;;;13.07;5.15;;;2.30;99.90;;;2.68;100.00;98365.53;5016430;28;20030;-79
2021/11/28 01:05:07;;;;;;;11.40;5.13;;;2.30;99.90;;;2.67;100.00;98356.47;5016285;28;20470;-78
2021/11/28 01:07:38;;;;;;;10.63;4.72;;;2.30;99.90;;;2.63;100.00;98365.84;5016320;28;20029;-81
2021/11/28 01:10:08;;;;;;;12.07;4.80;;;2.30;99.90;;;2.55;100.00;98364.88;5016423;28;20072;-79
2021/11/28 01:12:39;;;;;;;11.70;4.93;;;2.20;99.90;;;2.46;100.00;98374.50;5014707;28;20041;-79
2021/11/28 01:15:11;;;;;;;9.23;4.88;;;2.20;99.90;;;2.37;100.00;98373.91;5016336;28;20053;-80
2021/11/28 01:17:38;;;;;;;16.95;5.00;;;2.10;99.90;;;2.28;100.00;98376.06;5015966;28;20030;-79
2021/11/28 01:20:09;;;;;;;6.20;4.65;;;2.00;99.90;;;2.22;100.00;98380.22;5014909;28;20037;-80
2021/11/28 01:22:35;;;;;;;8.75;3.88;;;1.90;99.90;;;2.21;100.00;98382.19;5032906;28;20541;-79
2021/11/28 01:25:01;;;;;;;13.27;5.38;;;1.90;99.90;;;2.19;100.00;98372.69;5035915;28;20025;-77
2021/11/28 01:27:30;;;;;;;7.60;4.15;;;1.80;99.90;;;2.09;100.00;98383.09;5036747;28;20025;-81
2021/11/28 01:29:56;;;;;;;9.27;4.80;;;1.70;99.90;;;2.02;100.00;98379.38;5018395;28;20040;-81
2021/11/28 01:32:21;;;;;;;12.25;4.82;;;1.70;99.90;;;1.97;100.00;98380.44;5017969;28;20041;-80
2021/11/28 01:34:47;;;;;;;11.55;4.60;;;1.60;99.90;;;1.92;100.00;98390.94;5035999;28;20028;-80
2021/11/28 01:37:13;;;;;;;13.43;4.32;;;1.60;99.90;;;1.81;100.00;98384.34;5018659;28;20060;-79
2021/11/28 01:39:40;;;;;;;11.80;5.53;;;1.50;99.90;;;1.75;100.00;98386.56;5036217;28;20025;-81
2021/11/28 01:42:07;;;;;;;12.02;5.30;;;1.40;99.90;;;1.77;100.00;98387.00;5036203;28;20120;-80
2021/11/28 01:44:33;;;;;;;14.30;5.90;;;1.40;99.90;;;1.77;100.00;98392.50;5036473;28;20029;-79
2021/11/28 01:47:00;;;;;;;17.08;7.55;;;1.40;99.90;;;1.73;100.00;98391.66;5017606;28;20021;-82
2021/11/28 01:49:29;;;;;;;12.75;6.63;;;1.40;99.90;;;1.65;100.00;98398.09;5031500;28;20031;-78
2021/11/28 01:51:56;;;;;;;11.63;6.35;;;1.30;99.90;;;1.57;100.00;98391.59;5031881;28;20033;-79
2021/11/28 01:54:23;;;;;;;8.85;5.68;;;1.30;99.90;;;1.52;100.00;98389.13;5031880;28;20033;-77
2021/11/28 01:56:50;;;;;;;8.73;5.40;;;1.30;99.90;;;1.49;100.00;98389.84;5031019;28;20480;-78
2021/11/28 01:59:18;;;;;;;9.30;5.55;;;1.20;99.90;;;1.43;100.00;98391.25;5032226;28;20045;-79
2021/11/28 02:01:46;;;;;;;10.75;5.88;;;1.10;99.90;;;1.39;100.00;98397.78;5036957;28;20025;-76
2021/11/28 02:04:16;;;;;;;18.50;5.63;;;1.10;99.90;;;1.29;100.00;98404.59;5056566;28;20050;-79
2021/11/28 02:06:46;;;;;;;9.07;4.78;;;1.00;99.90;;;1.11;100.00;98397.81;5037113;28;20034;-78
2021/11/28 02:09:14;;;;;;;9.48;5.70;;;0.90;99.90;;;0.99;100.00;98403.38;5044035;28;20074;-77
2021/11/28 02:11:46;;;;;;;12.32;5.38;;;0.80;99.90;;;0.92;100.00;98398.47;5033200;28;20068;-81
2021/11/28 02:14:15;;;;;;;14.82;5.40;;;0.70;99.90;;;0.90;100.00;98403.50;5016620;28;20037;-80
2021/11/28 02:16:41;;;;;;;13.82;5.95;;;0.70;99.90;;;0.87;100.00;98406.16;5017187;28;20079;-81
2021/11/28 02:19:07;;;;;;;10.68;5.43;;;0.60;99.90;;;0.75;100.00;98396.00;5016624;28;20025;-79
2021/11/28 02:21:36;;;;;;;8.23;4.80;;;0.50;99.90;;;0.67;100.00;98396.97;5033422;28;20065;-78
2021/11/28 02:24:02;;;;;;;12.02;5.25;;;0.50;99.90;;;0.60;100.00;98396.75;5031869;28;20029;-79
2021/11/28 02:26:31;;;;;;;11.30;5.13;;;0.40;99.90;;;0.52;100.00;98397.66;5013938;28;20030;-80
2021/11/28 02:28:58;;;;;;;11.95;5.35;;;0.30;99.90;;;0.35;100.00;98395.19;5032161;28;20030;-80
2021/11/28 02:31:27;;;;;;;10.32;5.22;;;0.10;99.90;;;0.19;100.00;98394.28;5016625;28;20481;-79
2021/11/28 02:33:53;;;;;;;8.90;4.97;;;0.00;99.90;;;0.09;100.00;98392.00;5034611;28;20376;-79
2021/11/28 02:36:19;;;;;;;8.32;4.53;;;-0.10;99.90;;;0.06;100.00;98401.72;5034743;28;20025;-79
2021/11/28 02:38:46;;;;;;;11.43;5.70;;;-0.10;99.90;;;0.05;100.00;98397.38;5016543;28;20033;-79
2021/11/28 02:41:13;;;;;;;14.27;5.57;;;-0.20;99.90;;;0.01;100.00;98390.97;5034095;28;20029;-80
2021/11/28 02:43:40;;;;;;;9.65;4.97;;;-0.20;99.90;;;-0.07;100.00;98391.88;5033921;28;20087;-79
2021/11/28 02:46:10;;;;;;;12.75;6.57;;;-0.30;99.90;;;-0.11;100.00;98394.50;5034425;28;20034;-79
2021/11/28 02:48:39;;;;;;;15.32;6.60;;;-0.30;99.90;;;-0.02;100.00;98391.66;5033811;28;20096;-79
2021/11/28 02:51:07;;;;;;;14.15;6.15;;;-0.20;99.90;;;0.03;100.00;98398.88;5031163;28;20102;-80
2021/11/28 02:53:34;;;;;;;12.45;6.75;;;-0.20;99.90;;;-0.06;100.00;98391.53;5030054;28;20037;-81
2021/11/28 02:56:04;;;;;;;10.63;6.85;;;-0.20;99.90;;;-0.19;100.00;98391.88;5031934;28;20048;-80
2021/11/28 02:58:34;;;;;;;11.57;6.63;;;-0.30;99.90;;;-0.26;100.00;98394.41;5031205;28;20057;-80
2021/11/28 03:01:18;;;;;;;12.13;5.55;;;-0.40;99.90;;;-0.23;100.00;98393.72;5035850;28;20032;-79
2021/11/28 03:03:51;;;;;;;10.88;5.43;;;-0.40;99.90;;;-0.22;100.00;98392.53;5017455;28;20572;-80
2021/11/28 03:06:21;;;;;;;13.40;6.10;;;-0.40;99.90;;;-0.23;100.00;98385.47;5035527;28;20037;-80
2021/11/28 03:08:53;;;;;;;10.77;6.50;;;-0.40;99.90;;;-0.17;100.00;98390.41;5034548;28;20120;-78
2021/11/28 03:11:19;;;;;;;16.20;7.00;;;-0.30;99.90;;;-0.08;100.00;98390.28;5035523;28;20037;-79
2021/11/28 03:13:51;;;;;;;18.65;6.97;;;-0.30;99.90;;;0.02;100.00;98398.06;5034032;28;20038;-78
2021/11/28 03:16:22;;;;;;;13.70;6.18;;;-0.20;99.90;;;0.04;100.00;98401.25;5017593;28;20029;-81
2021/11/28 03:18:53;;;;;;;15.07;5.95;;;-0.20;99.90;;;-0.05;100.00;98387.66;5035014;28;20041;-79
2021/11/28 03:21:26;;;;;;;11.07;5.40;;;-0.20;99.90;;;-0.10;100.00;98403.56;5035002;28;20112;-80
2021/11/28 03:23:59;;;;;;;7.75;5.03;;;-0.30;99.90;;;-0.16;100.00;98404.94;5035075;28;20196;-79
2021/11/28 03:26:43;;;;;;;10.48;6.03;;;-0.30;99.90;;;-0.20;100.00;98401.25;5035358;28;20518;-78
2021/11/28 03:29:19;;;;;;;15.93;5.53;;;-0.40;99.90;;;-0.25;100.00;98406.94;5033371;28;20030;-81
2021/11/28 03:31:54;;;;;;;9.43;5.20;;;-0.40;99.90;;;-0.35;100.00;98410.16;5017305;28;20120;-81
2021/11/28 03:34:21;;;;;;;10.15;5.60;;;-0.50;99.90;;;-0.46;100.00;98418.00;5033704;28;20041;-79
2021/11/28 03:36:57;;;;;;;9.13;5.22;;;-0.60;99.90;;;-0.45;100.00;98410.59;5034803;28;20080;-81
2021/11/28 03:39:29;;;;;;;8.38;4.90;;;-0.60;99.90;;;-0.47;100.00;98404.63;5034790;28;20120;-79
2021/11/28 03:42:06;;;;;;;12.00;5.55;;;-0.60;99.90;;;-0.51;100.00;98409.22;5033280;28;20061;-79
2021/11/28 03:44:36;;;;;;;10.00;5.13;;;-0.70;99.90;;;-0.53;100.00;98409.53;5034858;28;20552;-79
2021/11/28 03:47:02;;;;;;;11.38;5.60;;;-0.70;99.90;;;-0.54;100.00;98419.69;5034810;28;20025;-78
2021/11/28 03:49:29;;;;;;;8.13;4.85;;;-0.70;99.90;;;-0.63;100.00;98410.78;5033056;28;20119;-78
2021/11/28 03:51:56;;;;;;;7.75;4.90;;;-0.80;99.90;;;-0.70;100.00;98416.00;5016306;28;20103;-77
2021/11/28 03:54:22;;;;;;;11.80;5.72;;;-0.80;99.90;;;-0.72;100.00;98426.50;5034407;28;20112;-80
2021/11/28 03:56:51;;;;;;;10.88;4.78;;;-0.90;99.90;;;-0.72;100.00;98420.22;5034264;28;20045;-80
2021/11/28 03:59:19;;;;;;;12.52;5.88;;;-0.90;99.90;;;-0.70;100.00;98423.41;5034324;28;20030;-78
2021/11/28 04:01:46;;;;;;;12.52;5.57;;;-0.90;99.90;;;-0.66;100.00;98427.91;5034189;28;20033;-80
2021/11/28 04:04:12;;;;;;;9.57;5.60;;;-0.90;99.90;;;-0.68;100.00;98415.66;5034473;28;20024;-79
2021/11/28 04:06:38;;;;;;;13.60;5.25;;;-0.90;99.90;;;-0.72;100.00;98426.50;5034343;28;20033;-78
2021/11/28 04:09:04;;;;;;;10.82;5.45;;;-0.90;99.90;;;-0.77;100.00;98418.47;5033781;28;20030;-79
2021/11/28 04:11:36;;;;;;;11.35;5.97;;;-1.00;99.90;;;-0.78;100.00;98422.38;5016395;28;20033;-80
2021/11/28 04:14:05;;;;;;;11.32;5.30;;;-1.00;99.90;;;-0.84;100.00;98423.72;5034169;28;20037;-79
2021/11/28 04:16:33;;;;;;;12.23;5.50;;;-1.00;99.90;;;-0.87;100.00;98432.63;5034277;28;20037;-79
2021/11/28 04:19:01;;;;;;;11.85;5.70;;;-1.00;99.90;;;-0.93;100.00;98439.44;5016528;28;20037;-80
2021/11/28 04:21:30;;;;;;;11.05;5.80;;;-1.10;99.90;;;-0.74;100.00;98441.69;5032628;28;20031;-79
2021/11/28 04:23:56;;;;;;;10.32;6.00;;;-1.00;99.90;;;-0.64;100.00;98442.06;5033785;28;20030;-78
2021/11/28 04:26:22;;;;;;;10.73;6.20;;;-0.90;99.90;;;-0.60;100.00;98442.19;5034165;28;20055;-79
2021/11/28 04:28:54;;;;;;;12.32;4.55;;;-0.80;99.90;;;-0.59;100.00;98443.78;5033671;28;20091;-79
2021/11/28 04:31:19;;;;;;;9.30;4.78;;;-0.80;99.90;;;-0.56;100.00;98443.91;5034339;28;20504;-79
2021/11/28 04:33:51;;;;;;;13.40;7.57;;;-0.80;99.90;;;-0.47;100.00;98449.31;5034048;28;20033;-80
2021/11/28 04:36:17;;;;;;;14.98;6.30;;;-0.70;99.90;;;-0.35;100.00;98457.56;5033629;28;20057;-79
2021/11/28 04:38:43;;;;;;;10.10;6.00;;;-0.60;99.90;;;-0.28;100.00;98457.81;5032543;28;20059;-79
2021/11/28 04:41:09;;;;;;;10.60;6.30;;;-0.60;99.90;;;-0.25;100.00;98454.38;5015920;28;20033;-78
2021/11/28 04:43:44;;;;;;;12.38;6.40;;;-0.50;99.90;;;-0.19;100.00;98461.25;5015769;28;20036;-79
2021/11/28 04:46:13;;;;;;;17.00;8.05;;;-0.40;99.90;;;0.04;100.00;98461.63;5032214;28;20112;-78
2021/11/28 04:48:39;;;;;;;15.43;8.15;;;-0.20;99.90;;;0.25;100.00;98467.81;5032291;28;20037;-80
2021/11/28 04:51:05;;;;;;;15.40;7.10;;;0.00;99.90;;;0.42;100.00;98467.56;5033966;28;20083;-78
2021/11/28 04:53:31;;;;;;;13.38;6.63;;;0.10;99.90;;;0.58;100.00;98469.66;5033342;28;20125;-79
2021/11/28 04:55:57;;;;;;;10.32;5.78;;;0.30;99.90;;;0.67;100.00;98468.38;5033717;28;20080;-78
2021/11/28 04:58:22;;;;;;;7.72;5.32;;;0.30;99.90;;;0.67;100.00;98456.59;5033543;28;20041;-79
2021/11/28 05:00:51;;;;;;;9.70;4.97;;;0.30;99.90;;;0.63;100.00;98463.91;5033722;28;20370;-78
2021/11/28 05:03:17;;;;;;;10.05;5.30;;;0.30;99.90;;;0.63;100.00;98456.47;5033140;28;20116;-78
2021/11/28 05:05:43;;;;;;;10.63;4.95;;;0.30;99.90;;;0.59;100.00;98461.03;5033258;28;20065;-78
2021/11/28 05:08:09;;;;;;;7.72;4.95;;;0.30;99.90;;;0.53;100.00;98459.69;5032484;28;20057;-80
2021/11/28 05:10:35;;;;;;;8.18;4.57;;;0.20;99.90;;;0.52;100.00;98458.06;5033536;28;20511;-80
2021/11/28 05:13:00;;;;;;;10.38;5.00;;;0.20;99.90;;;0.51;100.00;98465.50;5033240;28;20044;-78
2021/11/28 05:15:29;;;;;;;11.10;5.72;;;0.20;99.90;;;0.55;100.00;98462.09;5032358;28;20471;-80
2021/11/28 05:18:01;;;;;;;8.63;4.60;;;0.30;99.90;;;0.60;100.00;98459.09;5032794;28;20045;-79
2021/11/28 05:20:27;;;;;;;11.45;5.03;;;0.30;99.90;;;0.66;100.00;98469.50;5032581;28;20473;-79
2021/11/28 05:22:53;;;;;;;11.85;6.72;;;0.30;99.90;;;0.73;100.00;98468.94;5032610;28;20037;-80
2021/11/28 05:25:19;;;;;;;16.48;6.63;;;0.40;99.90;;;0.77;100.00;98478.09;5033354;28;20431;-79
2021/11/28 05:27:47;;;;;;;11.65;5.97;;;0.50;99.90;;;0.87;100.00;98477.59;5032686;28;20056;-81
2021/11/28 05:30:16;;;;;;;12.30;5.80;;;0.50;99.90;;;0.91;100.00;98484.81;5032932;28;20034;-79
2021/11/28 05:32:42;;;;;;;7.10;5.60;;;0.60;99.90;;;1.00;100.00;98484.66;5032256;28;20051;-79
2021/11/28 05:35:08;;;;;;;19.45;6.30;;;0.70;99.90;;;1.06;100.00;98480.53;5032509;28;20026;-80
2021/11/28 05:37:34;;;;;;;10.48;5.50;;;0.70;99.90;;;1.13;100.00;98482.69;5031608;28;20029;-78
2021/11/28 05:40:02;;;;;;;8.75;5.07;;;0.80;99.90;;;1.19;100.00;98490.34;5014995;28;20115;-78
2021/11/28 05:42:28;;;;;;;10.77;5.25;;;0.80;99.90;;;1.21;100.00;98479.00;5031454;28;20037;-80
2021/11/28 05:44:57;;;;;;;9.20;5.65;;;0.80;99.90;;;1.17;100.00;98484.41;5032870;28;20630;-79
2021/11/28 05:47:23;;;;;;;10.50;6.05;;;0.80;99.90;;;1.13;100.00;98488.19;5032681;28;20037;-82
2021/11/28 05:49:49;;;;;;;10.88;5.90;;;0.80;99.90;;;1.12;100.00;98489.34;5014987;28;20434;-78
2021/11/28 05:52:18;;;;;;;9.77;5.80;;;0.80;99.90;;;1.17;100.00;98481.66;5015119;28;20034;-78
2021/11/28 05:54:48;;;;;;;12.15;6.18;;;0.90;99.90;;;1.23;100.00;98491.25;5032129;28;20053;-79
2021/11/28 05:57:14;;;;;;;12.70;6.15;;;0.90;99.90;;;1.28;100.00;98495.72;5032262;28;20069;-78
2021/11/28 05:59:40;;;;;;;9.52;6.43;;;0.90;99.90;;;1.29;100.00;98500.03;5013995;28;20072;-79
2021/11/28 06:02:06;;;;;;;9.35;5.88;;;0.90;99.90;;;1.30;100.00;98499.72;5033569;28;20150;-81
2021/11/28 06:04:32;;;;;;;7.20;4.88;;;0.90;99.90;;;1.32;100.00;98507.59;5039520;28;20029;-81
2021/11/28 06:06:58;;;;;;;8.10;5.22;;;1.00;99.90;;;1.30;100.00;98505.22;5038364;28;20060;-79
2021/11/28 06:09:24;;;;;;;8.57;5.75;;;0.90;99.90;;;1.30;100.00;98510.72;5036643;28;20052;-80
2021/11/28 06:11:49;;;;;;;7.03;4.75;;;0.90;99.90;;;1.30;100.00;98507.97;5035767;28;20021;-79
2021/11/28 06:14:25;;;;;;;11.75;4.88;;;0.90;99.90;;;1.30;100.00;98515.41;5036450;28;20033;-79
2021/11/28 06:17:00;;;;;;;8.20;5.25;;;1.00;99.90;;;1.29;100.00;98508.28;5026297;28;20350;-80
2021/11/28 06:19:29;;;;;;;11.50;5.30;;;0.90;99.90;;;1.30;100.00;98520.91;5041978;28;20048;-79
2021/11/28 06:22:01;;;;;;;7.65;5.20;;;0.90;99.90;;;1.31;100.00;98526.06;5036582;28;20044;-79
2021/11/28 06:24:30;;;;;;;8.27;5.97;;;1.00;99.90;;;1.33;100.00;98523.75;5037067;28;20049;-79
2021/11/28 06:26:56;;;;;;;10.93;5.32;;;0.90;99.90;;;1.34;100.00;98525.38;5051724;28;20041;-77
2021/11/28 06:29:22;;;;;;;8.50;5.07;;;1.00;99.90;;;1.34;100.00;98519.88;5056281;28;20021;-79
2021/11/28 06:31:48;;;;;;;10.68;5.78;;;1.00;99.90;;;1.38;100.00;98520.75;5055462;28;20038;-79
2021/11/28 06:34:17;;;;;;;7.85;4.75;;;1.00;99.90;;;1.38;100.00;98520.75;5039902;28;20072;-78
2021/11/28 06:36:43;;;;;;;6.35;4.68;;;1.00;99.90;;;1.40;100.00;98532.22;5019085;28;20513;-80
2021/11/28 06:39:12;;;;;;;9.50;5.03;;;1.00;99.90;;;1.41;100.00;98531.06;5035879;28;20034;-81
2021/11/28 06:41:38;;;;;;;7.97;5.38;;;1.10;99.90;;;1.43;100.00;98531.53;5035617;28;20029;-78
2021/11/28 06:44:04;;;;;;;11.50;5.53;;;1.10;99.90;;;1.44;100.00;98538.63;5034470;28;20389;-80
2021/11/28 06:46:30;;;;;;;9.65;5.55;;;1.10;99.90;;;1.46;100.00;98535.53;5035616;28;20057;-79
2021/11/28 06:48:56;;;;;;;7.85;5.28;;;1.10;99.90;;;1.47;100.00;98539.88;5035664;28;20104;-78
2021/11/28 06:51:25;;;;;;;10.57;4.75;;;1.10;99.90;;;1.46;100.00;98541.00;5017669;28;20124;-78
2021/11/28 06:53:51;;;;;;;11.73;5.88;;;1.10;99.90;;;1.47;100.00;98537.94;5035476;28;20029;-78
2021/11/28 06:56:17;;;;;;;12.45;5.68;;;1.10;99.90;;;1.49;100.00;98537.56;5035273;28;20079;-79
2021/11/28 06:58:43;;;;;;;8.70;5.03;;;1.10;99.90;;;1.48;100.00;98538.72;5034054;28;20026;-78
2021/11/28 07:01:09;;;;;;;9.63;5.28;;;1.10;99.90;;;1.49;100.00;98543.88;5035815;28;20484;-78
2021/11/28 07:03:35;;;;;;;11.20;4.78;;;1.10;99.90;;;1.54;100.00;98551.09;5035560;28;20159;-80
2021/11/28 07:06:01;;;;;;;9.00;4.72;;;1.20;99.90;;;1.54;100.00;98546.38;5035509;28;20049;-78
2021/11/28 07:08:26;;;;;;;10.80;4.82;;;1.20;99.90;;;1.55;100.00;98555.44;5035197;28;20126;-78
2021/11/28 07:10:53;;;;;;;7.88;4.90;;;1.10;99.90;;;1.53;100.00;98552.22;5035300;28;20036;-78
2021/11/28 07:13:19;;;;;;;6.88;4.63;;;1.10;99.90;;;1.51;100.00;98552.56;5035448;28;20400;-79
2021/11/28 07:15:45;;;;;;;10.15;5.32;;;1.10;99.90;;;1.51;100.00;98560.00;5035016;28;20041;-78
2021/11/28 07:18:11;;;;;;;8.02;5.63;;;1.10;99.90;;;1.49;100.00;98560.38;5034866;28;20591;-77
2021/11/28 07:20:37;;;;;;;8.52;5.00;;;1.10;99.90;;;1.51;100.00;98565.50;5017453;28;20032;-79
2021/11/28 07:23:04;;;;;;;7.95;4.57;;;1.10;99.90;;;1.54;100.00;98567.59;5035906;28;20053;-78
2021/11/28 07:25:30;;;;;;;8.48;5.30;;;1.10;99.90;;;1.54;100.00;98571.13;5034793;28;20076;-78
2021/11/28 07:27:57;;;;;;;12.07;5.40;;;1.10;99.90;;;1.56;100.00;98574.34;5035316;28;20068;-77
2021/11/28 07:30:25;;;;;;;13.85;6.38;;;1.20;99.90;;;1.56;100.00;98568.84;5035942;28;20029;-78
2021/11/28 07:32:52;;;;;;;11.60;5.68;;;1.10;99.90;;;1.56;100.00;98571.59;5035552;28;20029;-79
2021/11/28 07:35:21;;;;;;;8.55;5.18;;;1.20;99.90;;;1.55;100.00;98578.25;5036070;28;20036;-79
2021/11/28 07:37:47;;;;;;;8.35;5.07;;;1.20;99.90;;;1.55;100.00;98580.19;5035728;28;20034;-79
2021/11/28 07:40:18;;;;;;;9.38;5.43;;;1.20;99.90;;;1.56;100.00;98579.84;5035308;28;20029;-79
2021/11/28 07:42:47;;;;;;;14.85;6.28;;;1.20;99.90;;;1.57;100.00;98580.66;5035649;28;20021;-79
2021/11/28 07:45:13;;;;;;;11.02;6.65;;;1.20;99.90;;;1.59;100.00;98575.59;5034611;28;20068;-79
2021/11/28 07:47:40;;;;;;;11.30;6.15;;;1.20;99.90;;;1.66;100.00;98575.81;5035666;28;20057;-78
2021/11/28 07:50:09;;;;;;;11.32;6.43;;;1.30;99.90;;;1.76;100.00;98574.50;5044887;28;20033;-78
2021/11/28 07:52:36;;;;;;;14.80;5.97;;;1.40;99.90;;;1.84;100.00;98576.28;5044332;28;20060;-79
2021/11/28 07:55:04;;;;;;;12.32;5.72;;;1.50;99.90;;;1.89;100.00;98578.81;5043719;28;20030;-80
2021/11/28 07:57:29;;;;;;;13.48;6.13;;;1.50;99.90;;;1.92;100.00;98576.16;5027629;28;20032;-78
2021/11/28 07:59:55;;;;;;;12.95;6.13;;;1.50;99.90;;;1.95;100.00;98580.97;5046214;28;20021;-80
2021/11/28 08:02:25;;;;;;;13.38;7.57;;;1.50;99.90;;;1.97;100.00;98577.84;5046536;28;20050;-79
2021/11/28 08:04:54;;;;;;;8.70;5.68;;;1.50;99.90;;;1.97;100.00;98580.59;5045536;28;20124;-80
2021/11/28 08:07:20;;;;;;;12.02;7.30;;;1.50;99.90;;;1.97;100.00;98584.16;5045472;28;20068;-80
2021/11/28 08:09:50;;;;;;;12.70;6.18;;;1.60;99.90;;;2.00;100.00;98580.69;5045481;28;20076;-77
2021/11/28 08:12:16;;;;;;;12.15;7.00;;;1.60;99.90;;;2.04;100.00;98586.31;5044575;28;20040;-78
2021/11/28 08:14:43;;;;;;;10.52;6.03;;;1.60;99.90;;;2.05;100.00;98596.19;5045996;28;20393;-80
2021/11/28 08:17:12;;;;;;;10.50;6.25;;;1.60;99.90;;;2.06;100.00;98584.78;5045540;28;20036;-79
2021/11/28 08:19:37;;;;;;;9.25;5.80;;;1.60;99.90;;;2.10;100.00;98598.66;5028012;28;20085;-79
2021/11/28 08:22:03;;;;;;;15.18;7.78;;;1.60;99.90;;;2.07;100.00;98593.84;5045831;28;20049;-79
2021/11/28 08:24:30;;;;;;;18.15;10.00;;;1.70;99.90;;;2.09;100.00;98600.59;5044462;28;20033;-80
2021/11/28 08:27:00;;;;;;;13.05;7.68;;;1.70;99.90;;;2.13;100.00;98598.75;5042664;28;20030;-81
2021/11/28 08:31:56;;;;;;;16.60;7.72;;;1.70;99.90;;;2.21;100.00;98604.47;5076312;28;20048;-83
2021/11/28 08:34:25;;;;;;;10.85;6.70;;;1.80;99.90;;;2.25;100.00;98603.41;5078734;28;20032;-82
2021/11/28 08:36:51;;;;;;;10.98;7.53;;;1.90;99.90;;;2.33;100.00;98607.94;5095385;28;20052;-84
2021/11/28 08:39:18;;;;;;;11.90;6.38;;;1.90;99.90;;;2.39;100.00;98608.50;5102130;28;20275;-81
2021/11/28 08:41:44;;;;;;;8.88;5.80;;;2.00;99.90;;;2.46;100.00;98606.72;5092504;28;20095;-83
2021/11/28 08:44:11;;;;;;;8.70;5.97;;;2.00;99.90;;;2.52;100.00;98607.25;5085651;28;20091;-85
2021/11/28 08:46:37;;;;;;;13.07;7.03;;;2.10;99.90;;;2.53;100.00;98606.91;5077751;28;20037;-83
2021/11/28 08:49:04;;;;;;;13.77;7.63;;;2.10;99.90;;;2.61;100.00;98611.44;5078239;28;20468;-84
2021/11/28 08:51:31;;;;;;;11.10;6.82;;;2.20;99.90;;;2.64;100.00;98594.19;5078639;28;20104;-83
2021/11/28 08:53:58;;;;;;;10.65;7.10;;;2.20;99.90;;;2.58;100.00;98595.63;5077096;28;20063;-85
2021/11/28 08:56:27;;;;;;;14.68;7.25;;;2.20;99.90;;;2.74;100.00;98606.66;5079327;28;20029;-84
2021/11/28 08:58:55;;;;;;;10.77;6.40;;;2.30;99.90;;;2.84;100.00;98610.81;5083591;28;20039;-84
2021/11/28 09:01:22;;;;;;;14.43;7.82;;;2.40;99.90;;;2.81;100.00;98600.50;5087308;28;20059;-84
2021/11/28 09:03:48;;;;;;;11.85;7.78;;;2.40;99.90;;;2.95;100.00;98618.22;5084743;28;20112;-85
2021/11/28 09:06:14;;;;;;;13.43;8.20;;;2.50;99.90;;;3.06;100.00;98608.22;5083921;28;20040;-84
2021/11/28 09:08:40;;;;;;;16.73;8.38;;;2.60;99.90;;;3.09;100.00;98612.22;5080365;28;20089;-84
2021/11/28 09:11:07;;;;;;;12.35;7.80;;;2.60;99.90;;;3.18;100.00;98615.59;5079468;28;20028;-84
2021/11/28 09:13:37;;;;;;;9.18;6.55;;;2.70;99.90;;;3.25;100.00;98620.47;5081686;28;20028;-83
2021/11/28 09:16:04;;;;;;;12.15;7.10;;;2.80;99.90;;;3.29;100.00;98624.94;5080825;28;20052;-84
2021/11/28 09:21:14;;;;;;;12.05;7.50;;;2.80;99.90;;;3.32;100.00;98618.69;5081275;28;20436;-83
2021/11/28 09:26:25;;;;;;;9.85;6.30;;;3.00;99.90;;;3.42;100.00;98634.69;5092655;28;20028;-84
2021/11/28 09:28:51;;;;;;;10.98;6.05;;;3.00;99.90;;;3.39;100.00;98649.22;5088877;28;20028;-85
2021/11/28 09:31:17;;;;;;;10.27;6.80;;;2.90;99.90;;;3.34;100.00;98643.94;5105190;28;20490;-83
2021/11/28 09:33:42;;;;;;;9.93;6.57;;;3.00;99.90;;;3.40;100.00;98659.09;5088223;28;20025;-85
2021/11/28 09:36:11;;;;;;;9.30;6.28;;;2.90;99.90;;;3.46;100.00;98646.63;5083561;28;20110;-85
2021/11/28 09:38:40;;;;;;;11.88;6.75;;;3.00;99.90;;;3.57;100.00;98653.16;5078488;28;20025;-84
2021/11/28 09:41:12;;;;;;;12.68;6.65;;;3.10;99.90;;;3.69;100.00;98649.50;5077798;28;20033;-83
2021/11/28 09:43:49;;;;;;;9.68;6.03;;;3.20;99.90;;;3.85;100.00;98653.00;5080112;28;20111;-84
2021/11/28 09:46:26;;;;;;;9.68;5.97;;;3.30;99.90;;;4.01;100.00;98650.19;5079629;28;20028;-85
2021/11/28 09:48:59;;;;;;;11.05;6.90;;;3.50;99.90;;;4.24;100.00;98648.25;5094850;28;20120;-84
2021/11/28 09:51:29;;;;;;;12.80;7.22;;;3.60;99.90;;;4.40;100.00;98657.28;5079570;28;20032;-85
2021/11/28 09:54:06;;;;;;;10.00;6.75;;;3.70;99.90;;;4.47;100.00;98656.63;5085218;28;20058;-84
2021/11/28 09:56:45;;;;;;;12.98;7.78;;;3.80;99.90;;;4.54;100.00;98649.25;5095056;28;20029;-82
2021/11/28 09:59:13;;;;;;;12.30;6.28;;;3.90;99.90;;;4.58;100.00;98646.56;5086702;28;20024;-82
2021/11/28 10:01:40;;;;;;;12.43;7.55;;;4.00;99.90;;;4.86;99.85;98647.06;5087941;28;20051;-82
2021/11/28 10:04:07;;;;;;;18.60;7.65;;;4.20;99.90;;;5.45;98.84;98648.44;5087528;28;20035;-82
2021/11/28 10:06:38;;;;;;;12.20;7.28;;;4.60;99.90;;;6.20;96.22;98646.34;5081241;28;20060;-84
2021/11/28 10:09:05;;;;;;;14.10;8.35;;;5.20;99.90;;;6.92;89.76;98653.47;5082263;28;20024;-84
2021/11/28 10:11:40;;;;;;;12.02;8.50;;;5.80;99.90;;;7.57;85.80;98659.97;5078662;28;20033;-85
2021/11/28 10:14:14;;;;;;;13.10;7.70;;;6.40;99.90;;;8.12;84.51;98646.00;5075658;28;20036;-83
2021/11/28 10:16:42;;;;;;;14.30;7.57;;;6.90;99.90;;;8.28;80.14;98643.72;5075246;28;20033;-82
2021/11/28 10:19:10;;;;;;;23.90;11.63;;;7.20;99.90;;;7.97;81.42;98642.34;5074959;28;20028;-77
2021/11/28 10:21:39;;;;;;;16.95;9.18;;;7.00;99.90;;;7.84;82.09;98644.66;5074792;28;20036;-84
2021/11/28 10:24:09;;;;;;;14.52;9.57;;;7.00;99.90;;;7.46;82.40;98639.66;5079662;28;20154;-83
2021/11/28 10:27:10;;;;;;;17.13;9.60;;;6.70;99.90;;;7.13;84.40;98640.56;5085180;28;20042;-85
2021/11/28 10:29:42;;;;;;;14.00;8.57;;;6.50;99.90;;;6.93;85.38;98649.53;5082224;28;20064;-81
2021/11/28 10:32:14;;;;;;;15.48;9.90;;;6.30;99.90;;;6.85;86.26;98648.63;5080127;28;20035;-82
2021/11/28 10:34:49;;;;;;;19.17;11.48;;;6.20;99.90;;;6.86;85.62;98648.28;5085088;28;20036;-83
2021/11/28 10:37:24;;;;;;;19.88;12.18;;;6.10;99.90;;;6.57;84.52;98640.84;5097562;28;20064;-82
2021/11/28 10:39:59;;;;;;;24.40;13.93;;;5.90;99.90;;;6.35;86.38;98642.59;5082294;28;20021;-83